createdAt,value
2022-09-28T00:00:47.974Z,98711.94
2022-09-28T00:03:14.756Z,98710.81
2022-09-28T00:05:41.456Z,98702.31
2022-09-28T00:08:08.262Z,98701.53
2022-09-28T00:10:35.006Z,98708.03
2022-09-28T00:13:01.919Z,98713.25
2022-09-28T00:15:29.243Z,98703.94
2022-09-28T00:17:56.098Z,98708.78
2022-09-28T00:20:23.091Z,98706.09
2022-09-28T00:22:49.894Z,98712.81
2022-09-28T00:25:17.076Z,98714.63
2022-09-28T00:27:50.002Z,98721.81
2022-09-28T00:30:16.876Z,98710.78
2022-09-28T00:32:43.911Z,98723.50
2022-09-28T00:35:11.084Z,98721.09
2022-09-28T00:37:38.246Z,98722.50
2022-09-28T00:40:05.681Z,98722.44
2022-09-28T00:42:32.542Z,98724.22
2022-09-28T00:44:59.739Z,98720.63
2022-09-28T00:47:52.236Z,98717.47
2022-09-28T00:50:31.188Z,98726.94
2022-09-28T00:53:23.814Z,98725.22
2022-09-28T00:55:53.455Z,98725.88
2022-09-28T00:58:27.674Z,98718.13
2022-09-28T01:00:56.504Z,98725.81
2022-09-28T01:03:23.827Z,98725.22
2022-09-28T01:05:52.049Z,98723.69
2022-09-28T01:08:21.190Z,98722.47
2022-09-28T01:10:48.884Z,98718.44
2022-09-28T01:13:17.905Z,98720.78
2022-09-28T01:16:08.113Z,98717.72
2022-09-28T01:18:59.825Z,98722.44
2022-09-28T01:21:38.735Z,98715.56
2022-09-28T01:24:18.529Z,98716.28
2022-09-28T01:26:48.252Z,98715.63
2022-09-28T01:29:38.002Z,98716.03
2022-09-28T01:32:20.400Z,98712.34
2022-09-28T01:35:01.851Z,98705.19
2022-09-28T01:37:35.630Z,98706.72
2022-09-28T01:40:04.059Z,98704.91
2022-09-28T01:42:32.725Z,98696.53
2022-09-28T01:45:06.017Z,98700.19
2022-09-28T01:47:36.268Z,98701.09
2022-09-28T01:50:12.540Z,98703.22
2022-09-28T01:52:49.565Z,98697.09
2022-09-28T01:55:46.827Z,98693.03
2022-09-28T01:58:29.514Z,98703.72
2022-09-28T02:01:03.881Z,98701.84
2022-09-28T02:03:39.287Z,98700.13
2022-09-28T02:06:29.094Z,98715.63
2022-09-28T02:08:59.311Z,98707.00
2022-09-28T02:11:38.177Z,98712.03
2022-09-28T02:14:07.085Z,98722.72
2022-09-28T02:16:48.392Z,98704.63
2022-09-28T02:19:19.070Z,98706.00
2022-09-28T02:22:07.306Z,98706.72
2022-09-28T02:24:41.341Z,98712.31
2022-09-28T02:27:39.532Z,98718.34
2022-09-28T02:30:07.662Z,98707.94
2022-09-28T02:32:40.830Z,98710.94
2022-09-28T02:35:16.411Z,98714.66
2022-09-28T02:37:44.801Z,98709.09
2022-09-28T02:40:24.917Z,98711.28
2022-09-28T02:43:00.795Z,98707.56
2022-09-28T02:45:37.332Z,98711.38
2022-09-28T02:48:41.281Z,98709.78
2022-09-28T02:51:31.069Z,98719.16
2022-09-28T02:54:15.443Z,98719.41
2022-09-28T02:56:54.754Z,98716.59
2022-09-28T02:59:39.917Z,98713.25
2022-09-28T03:02:12.643Z,98713.00
2022-09-28T03:04:44.141Z,98714.16
2022-09-28T03:07:33.067Z,98706.03
2022-09-28T03:10:08.866Z,98705.69
2022-09-28T03:12:36.659Z,98713.81
2022-09-28T03:15:23.018Z,98717.31
2022-09-28T03:17:50.155Z,98720.88
2022-09-28T03:20:17.398Z,98721.00
2022-09-28T03:22:52.062Z,98709.41
2022-09-28T03:25:34.578Z,98714.28
2022-09-28T03:28:01.740Z,98709.66
2022-09-28T03:30:30.439Z,98714.41
2022-09-28T03:32:59.405Z,98704.91
2022-09-28T03:35:28.515Z,98704.16
2022-09-28T03:37:56.457Z,98712.69
2022-09-28T03:40:25.579Z,98704.78
2022-09-28T03:42:52.635Z,98707.28
2022-09-28T03:45:20.557Z,98709.28
2022-09-28T03:47:49.968Z,98712.03
2022-09-28T03:50:18.649Z,98709.78
2022-09-28T03:52:45.553Z,98715.69
2022-09-28T03:55:12.489Z,98716.13
2022-09-28T03:57:39.314Z,98713.88
2022-09-28T04:00:07.345Z,98711.91
2022-09-28T04:02:40.525Z,98708.53
2022-09-28T04:05:08.218Z,98707.53
2022-09-28T04:07:35.168Z,98705.44
2022-09-28T04:10:02.015Z,98699.53
2022-09-28T04:12:28.973Z,98706.16
2022-09-28T04:14:55.808Z,98704.88
2022-09-28T04:17:22.680Z,98696.31
2022-09-28T04:19:49.654Z,98699.16
2022-09-28T04:22:25.740Z,98699.63
2022-09-28T04:24:53.413Z,98702.38
2022-09-28T04:27:51.009Z,98693.94
2022-09-28T04:30:18.104Z,98690.06
2022-09-28T04:32:48.747Z,98692.81
2022-09-28T04:35:16.869Z,98693.72
2022-09-28T04:37:43.607Z,98688.69
2022-09-28T04:40:10.909Z,98691.75
2022-09-28T04:42:38.060Z,98693.94
2022-09-28T04:45:05.371Z,98685.50
2022-09-28T04:47:35.767Z,98687.19
2022-09-28T04:50:21.534Z,98679.22
2022-09-28T04:53:14.137Z,98680.94
2022-09-28T04:55:40.863Z,98684.97
2022-09-28T04:58:07.550Z,98678.72
2022-09-28T05:00:35.165Z,98676.22
2022-09-28T05:03:22.527Z,98678.03
2022-09-28T05:06:16.038Z,98671.63
2022-09-28T05:08:46.996Z,98668.72
2022-09-28T05:11:15.031Z,98665.97
2022-09-28T05:13:45.646Z,98665.41
2022-09-28T05:16:16.247Z,98663.97
2022-09-28T05:19:10.079Z,98669.41
2022-09-28T05:21:37.031Z,98665.47
2022-09-28T05:24:07.492Z,98663.91
2022-09-28T05:26:36.254Z,98661.53
2022-09-28T05:29:03.118Z,98654.41
2022-09-28T05:31:56.502Z,98658.78
2022-09-28T05:34:41.869Z,98654.25
2022-09-28T05:37:13.351Z,98663.72
2022-09-28T05:39:40.466Z,98653.22
2022-09-28T05:42:08.017Z,98648.16
2022-09-28T05:44:34.901Z,98651.66
2022-09-28T05:47:02.782Z,98647.66
2022-09-28T05:49:31.678Z,98653.69
2022-09-28T05:52:00.517Z,98651.44
2022-09-28T05:54:27.284Z,98644.34
2022-09-28T05:56:53.993Z,98654.63
2022-09-28T05:59:20.814Z,98660.91
2022-09-28T06:01:47.855Z,98653.38
2022-09-28T06:04:16.240Z,98664.47
2022-09-28T06:06:44.487Z,98659.16
2022-09-28T06:09:11.320Z,98658.41
2022-09-28T06:11:59.324Z,98667.41
2022-09-28T06:14:39.760Z,98666.50
2022-09-28T06:17:06.652Z,98668.81
2022-09-28T06:19:33.613Z,98661.63
2022-09-28T06:22:19.006Z,98669.03
2022-09-28T06:24:54.459Z,98673.56
2022-09-28T06:27:21.227Z,98671.22
2022-09-28T06:29:48.632Z,98664.91
2022-09-28T06:32:15.415Z,98669.31
2022-09-28T06:34:45.272Z,98664.91
2022-09-28T06:37:12.691Z,98677.41
2022-09-28T06:39:40.185Z,98674.03
2022-09-28T06:42:07.098Z,98672.25
2022-09-28T06:45:02.951Z,98666.75
2022-09-28T06:47:43.488Z,98671.59
2022-09-28T06:50:33.595Z,98675.91
2022-09-28T06:53:14.019Z,98679.00
2022-09-28T06:56:00.573Z,98675.53
2022-09-28T06:58:28.688Z,98679.09
2022-09-28T07:01:00.841Z,98678.94
2022-09-28T07:03:30.968Z,98677.78
2022-09-28T07:06:36.325Z,98673.28
2022-09-28T07:09:33.403Z,98674.63
2022-09-28T07:12:21.844Z,98676.28
2022-09-28T07:15:03.886Z,98677.75
2022-09-28T07:17:32.472Z,98675.06
2022-09-28T07:20:12.862Z,98682.34
2022-09-28T07:22:43.624Z,98681.88
2022-09-28T07:25:16.914Z,98683.25
2022-09-28T07:28:05.267Z,98684.06
2022-09-28T07:30:52.577Z,98689.13
2022-09-28T07:33:38.122Z,98689.81
2022-09-28T07:36:17.933Z,98696.22
2022-09-28T07:38:45.333Z,98699.00
2022-09-28T07:41:12.155Z,98694.66
2022-09-28T07:43:56.797Z,98698.25
2022-09-28T07:46:23.741Z,98703.63
2022-09-28T07:48:56.641Z,98701.47
2022-09-28T07:51:34.844Z,98706.91
2022-09-28T07:54:21.889Z,98695.13
2022-09-28T07:57:07.236Z,98696.59
2022-09-28T07:59:54.714Z,98699.00
2022-09-28T08:02:44.539Z,98701.78
2022-09-28T08:05:16.100Z,98706.34
2022-09-28T08:07:43.650Z,98710.03
2022-09-28T08:10:11.694Z,98712.72
2022-09-28T08:12:46.260Z,98709.38
2022-09-28T08:15:38.295Z,98703.25
2022-09-28T08:18:35.652Z,98712.38
2022-09-28T08:21:22.762Z,98710.25
2022-09-28T08:23:49.749Z,98717.28
2022-09-28T08:26:17.004Z,98717.09
2022-09-28T08:28:46.797Z,98721.38
2022-09-28T08:31:32.326Z,98716.00
2022-09-28T08:34:20.093Z,98725.50
2022-09-28T08:37:09.123Z,98725.69
2022-09-28T08:39:41.676Z,98711.53
2022-09-28T08:42:32.728Z,98707.25
2022-09-28T08:45:23.283Z,98703.53
2022-09-28T08:48:38.490Z,98711.88
2022-09-28T08:51:43.789Z,98706.19
2022-09-28T08:54:37.950Z,98711.63
2022-09-28T08:57:23.163Z,98710.31
2022-09-28T08:59:58.345Z,98717.59
2022-09-28T09:02:36.804Z,98716.31
2022-09-28T09:05:17.167Z,98720.09
2022-09-28T09:08:39.721Z,98730.31
2022-09-28T09:11:23.874Z,98733.00
2022-09-28T09:14:16.696Z,98718.78
2022-09-28T09:17:07.398Z,98717.72
2022-09-28T09:19:55.688Z,98730.34
2022-09-28T09:22:40.783Z,98717.69
2022-09-28T09:25:18.203Z,98718.25
2022-09-28T09:28:18.849Z,98715.81
2022-09-28T09:31:10.095Z,98725.50
2022-09-28T09:33:42.621Z,98720.97
2022-09-28T09:37:16.745Z,98716.13
2022-09-28T09:40:32.081Z,98716.91
2022-09-28T09:44:03.071Z,98718.28
2022-09-28T09:47:10.174Z,98726.09
2022-09-28T09:49:56.028Z,98724.19
2022-09-28T09:52:55.897Z,98731.19
2022-09-28T09:55:44.686Z,98732.53
2022-09-28T09:58:26.011Z,98726.31
2022-09-28T10:01:07.688Z,98728.50
2022-09-28T10:03:53.586Z,98724.44
2022-09-28T10:06:27.432Z,98720.66
2022-09-28T10:09:03.829Z,98737.34
2022-09-28T10:11:37.397Z,98734.09
2022-09-28T10:14:08.381Z,98737.06
2022-09-28T10:16:38.608Z,98736.72
2022-09-28T10:19:13.074Z,98743.81
2022-09-28T10:22:00.018Z,98741.34
2022-09-28T10:24:36.014Z,98731.94
2022-09-28T10:27:14.492Z,98744.81
2022-09-28T10:30:08.334Z,98742.72
2022-09-28T10:32:46.211Z,98749.97
2022-09-28T10:35:19.166Z,98741.91
2022-09-28T10:37:59.347Z,98739.72
2022-09-28T10:41:02.761Z,98741.88
2022-09-28T10:44:06.621Z,98743.78
2022-09-28T10:47:08.883Z,98750.28
2022-09-28T10:49:46.967Z,98756.44
2022-09-28T10:52:54.072Z,98745.66
2022-09-28T10:55:39.253Z,98755.91
2022-09-28T10:58:24.756Z,98744.59
2022-09-28T11:00:52.833Z,98756.72
2022-09-28T11:03:25.430Z,98752.38
2022-09-28T11:06:02.359Z,98759.44
2022-09-28T11:08:37.734Z,98754.81
2022-09-28T11:11:15.021Z,98756.16
2022-09-28T11:13:51.809Z,98758.03
2022-09-28T11:16:32.245Z,98764.00
2022-09-28T11:19:27.231Z,98760.47
2022-09-28T11:21:54.337Z,98749.44
2022-09-28T11:24:27.275Z,98757.50
2022-09-28T11:27:00.289Z,98762.09
2022-09-28T11:29:43.997Z,98764.81
2022-09-28T11:32:31.671Z,98769.09
2022-09-28T11:35:19.868Z,98764.00
2022-09-28T11:38:12.524Z,98766.16
2022-09-28T11:41:30.319Z,98766.66
2022-09-28T11:44:06.284Z,98753.50
2022-09-28T11:46:42.145Z,98764.53
2022-09-28T11:49:20.255Z,98765.06
2022-09-28T11:51:48.625Z,98760.50
2022-09-28T11:54:26.716Z,98768.56
2022-09-28T11:56:53.881Z,98769.91
2022-09-28T11:59:20.563Z,98771.53
2022-09-28T12:01:54.726Z,98772.34
2022-09-28T12:04:37.007Z,98767.50
2022-09-28T12:07:25.758Z,98766.97
2022-09-28T12:10:11.733Z,98764.81
2022-09-28T12:12:47.782Z,98770.44
2022-09-28T12:15:24.431Z,98771.53
2022-09-28T12:18:12.075Z,98776.91
2022-09-28T12:20:42.728Z,98774.47
2022-09-28T12:23:16.997Z,98769.38
2022-09-28T12:25:52.128Z,98772.34
2022-09-28T12:28:30.364Z,98768.84
2022-09-28T12:31:00.364Z,98764.00
2022-09-28T12:33:27.193Z,98762.91
2022-09-28T12:36:21.345Z,98780.66
2022-09-28T12:39:30.681Z,98771.81
2022-09-28T12:42:41.188Z,98773.69
2022-09-28T12:45:23.775Z,98771.25
2022-09-28T12:48:14.985Z,98759.44
2022-09-28T12:50:55.862Z,98772.06
2022-09-28T12:53:41.937Z,98777.16
2022-09-28T12:56:21.662Z,98774.47
2022-09-28T12:59:08.513Z,98780.56
2022-09-28T13:01:44.906Z,98795.94
2022-09-28T13:04:50.026Z,98774.97
2022-09-28T13:07:26.001Z,98778.22
2022-09-28T13:09:58.698Z,98773.84
2022-09-28T13:12:37.772Z,98770.88
2022-09-28T13:15:27.470Z,98769.81
2022-09-28T13:18:03.165Z,98774.34
2022-09-28T13:21:11.383Z,98763.53
2022-09-28T13:23:44.343Z,98771.38
2022-09-28T13:26:30.311Z,98776.75
2022-09-28T13:29:04.438Z,98780.81
2022-09-28T13:31:34.938Z,98777.50
2022-09-28T13:34:04.628Z,98774.13
2022-09-28T13:36:31.338Z,98784.06
2022-09-28T13:38:59.695Z,98782.69
2022-09-28T13:41:40.559Z,98792.13
2022-09-28T13:44:13.489Z,98785.47
2022-09-28T13:47:08.583Z,98784.00
2022-09-28T13:49:48.724Z,98800.97
2022-09-28T13:52:43.976Z,98785.09
2022-09-28T13:55:23.311Z,98776.19
2022-09-28T13:58:13.460Z,98795.81
2022-09-28T14:01:24.919Z,98796.16
2022-09-28T14:03:56.016Z,98799.38
2022-09-28T14:06:28.515Z,98791.31
2022-09-28T14:09:13.643Z,98797.00
2022-09-28T14:11:43.243Z,98798.09
2022-09-28T14:14:51.596Z,98795.66
2022-09-28T14:17:21.539Z,98797.03
2022-09-28T14:20:05.296Z,98793.28
2022-09-28T14:23:17.079Z,98796.78
2022-09-28T14:25:45.755Z,98796.78
2022-09-28T14:28:43.072Z,98805.13
2022-09-28T14:31:17.664Z,98807.00
2022-09-28T14:33:54.927Z,98812.13
2022-09-28T14:36:46.449Z,98808.41
2022-09-28T14:39:47.566Z,98812.69
2022-09-28T14:42:18.248Z,98814.03
2022-09-28T14:45:06.496Z,98819.16
2022-09-28T14:47:42.383Z,98819.94
2022-09-28T14:50:27.525Z,98825.03
2022-09-28T14:52:55.752Z,98818.63
2022-09-28T14:55:38.860Z,98830.75
2022-09-28T14:58:07.806Z,98827.75
2022-09-28T15:00:35.073Z,98825.09
2022-09-28T15:03:05.943Z,98816.75
2022-09-28T15:05:43.997Z,98823.47
2022-09-28T15:08:11.921Z,98826.41
2022-09-28T15:10:44.116Z,98835.81
2022-09-28T15:13:30.061Z,98827.50
2022-09-28T15:16:36.388Z,98827.25
2022-09-28T15:19:20.577Z,98824.03
2022-09-28T15:21:50.131Z,98837.19
2022-09-28T15:24:25.325Z,98835.03
2022-09-28T15:26:53.229Z,98831.53
2022-09-28T15:29:21.129Z,98843.91
2022-09-28T15:31:51.115Z,98837.47
2022-09-28T15:34:51.256Z,98832.88
2022-09-28T15:37:29.893Z,98841.75
2022-09-28T15:39:57.759Z,98842.03
2022-09-28T15:42:24.948Z,98843.09
2022-09-28T15:45:26.972Z,98854.66
2022-09-28T15:48:15.098Z,98857.91
2022-09-28T15:51:11.989Z,98859.00
2022-09-28T15:53:44.053Z,98856.31
2022-09-28T15:56:11.857Z,98866.50
2022-09-28T15:58:39.742Z,98866.50
2022-09-28T16:01:36.276Z,98869.75
2022-09-28T16:04:38.379Z,98866.22
2022-09-28T16:07:35.551Z,98865.72
2022-09-28T16:10:11.514Z,98860.88
2022-09-28T16:12:38.258Z,98873.75
2022-09-28T16:15:06.853Z,98873.75
2022-09-28T16:17:35.488Z,98875.09
2022-09-28T16:20:32.178Z,98882.38
2022-09-28T16:23:06.091Z,98873.50
2022-09-28T16:25:35.939Z,98873.75
2022-09-28T16:28:03.196Z,98872.97
2022-09-28T16:30:32.447Z,98871.06
2022-09-28T16:32:59.378Z,98868.34
2022-09-28T16:35:42.940Z,98884.50
2022-09-28T16:38:15.038Z,98883.69
2022-09-28T16:40:53.779Z,98882.63
2022-09-28T16:43:27.003Z,98891.28
2022-09-28T16:45:57.682Z,98897.69
2022-09-28T16:48:27.715Z,98902.00
2022-09-28T16:50:55.098Z,98899.31
2022-09-28T16:53:40.778Z,98900.09
2022-09-28T16:56:08.212Z,98897.09
2022-09-28T16:58:35.766Z,98897.13
2022-09-28T17:01:02.610Z,98896.31
2022-09-28T17:03:30.042Z,98903.88
2022-09-28T17:05:57.249Z,98896.59
2022-09-28T17:08:24.903Z,98904.66
2022-09-28T17:13:41.756Z,98913.56
2022-09-28T17:16:17.953Z,98914.88
2022-09-28T17:18:45.274Z,98916.22
2022-09-28T17:21:19.589Z,98916.50
2022-09-28T17:23:47.679Z,98924.03
2022-09-28T17:26:23.301Z,98928.06
2022-09-28T17:28:50.245Z,98928.31
2022-09-28T17:31:17.208Z,98927.75
2022-09-28T17:33:44.051Z,98930.69
2022-09-28T17:36:14.465Z,98941.13
2022-09-28T17:38:42.942Z,98944.69
2022-09-28T17:41:20.027Z,98947.31
2022-09-28T17:43:47.490Z,98944.13
2022-09-28T17:46:29.632Z,98942.47
2022-09-28T17:48:59.660Z,98942.72
2022-09-28T17:51:31.301Z,98945.16
2022-09-28T17:54:00.924Z,98953.81
2022-09-28T17:56:32.133Z,98940.91
2022-09-28T17:59:03.030Z,98955.09
2022-09-28T18:01:34.323Z,98962.63
2022-09-28T18:04:03.673Z,98960.19
2022-09-28T18:06:31.971Z,98964.50
2022-09-28T18:08:58.827Z,98969.34
2022-09-28T18:11:26.035Z,98970.22
2022-09-28T18:13:52.815Z,98971.25
2022-09-28T18:16:19.641Z,98982.22
2022-09-28T18:18:47.493Z,98982.00
2022-09-28T18:21:14.623Z,98983.53
2022-09-28T18:23:41.778Z,98983.00
2022-09-28T18:26:13.048Z,98986.75
2022-09-28T18:28:40.114Z,98982.78
2022-09-28T18:31:11.176Z,98984.47
2022-09-28T18:33:39.319Z,98990.59
2022-09-28T18:36:07.301Z,98989.78
2022-09-28T18:38:37.876Z,98999.09
2022-09-28T18:41:15.924Z,98989.56
2022-09-28T18:43:48.904Z,98995.50
2022-09-28T18:46:18.218Z,98996.75
2022-09-28T18:48:45.125Z,98999.22
2022-09-28T18:51:12.317Z,98999.22
2022-09-28T18:53:40.111Z,98997.31
2022-09-28T18:56:08.607Z,99001.16
2022-09-28T18:58:39.341Z,99003.56
2022-09-28T19:01:31.313Z,99016.94
2022-09-28T19:04:00.609Z,99010.78
2022-09-28T19:06:27.923Z,99017.72
2022-09-28T19:08:58.329Z,99027.44
2022-09-28T19:11:25.598Z,99018.25
2022-09-28T19:13:53.506Z,99024.69
2022-09-28T19:16:31.227Z,99027.72
2022-09-28T19:18:58.708Z,99027.66
2022-09-28T19:21:26.784Z,99028.75
2022-09-28T19:23:55.457Z,99034.97
2022-09-28T19:26:24.925Z,99042.56
2022-09-28T19:28:51.949Z,99043.38
2022-09-28T19:31:19.515Z,99048.16
2022-09-28T19:33:46.784Z,99051.38
2022-09-28T19:36:24.517Z,99055.63
2022-09-28T19:38:55.039Z,99054.09
2022-09-28T19:42:02.641Z,99049.75
2022-09-28T19:44:29.950Z,99045.44
2022-09-28T19:47:07.058Z,99062.09
2022-09-28T19:49:38.434Z,99059.94
2022-09-28T19:52:14.425Z,99061.91
2022-09-28T19:55:07.384Z,99059.69
2022-09-28T19:57:34.956Z,99061.50
2022-09-28T20:00:03.608Z,99068.00
2022-09-28T20:02:34.872Z,99068.00
2022-09-28T20:05:01.905Z,99056.75
2022-09-28T20:07:32.786Z,99054.28
2022-09-28T20:09:59.746Z,99068.34
2022-09-28T20:12:26.503Z,99069.63
2022-09-28T20:14:53.365Z,99061.03
2022-09-28T20:17:21.777Z,99069.34
2022-09-28T20:19:51.118Z,99084.97
2022-09-28T20:22:18.684Z,99078.31
2022-09-28T20:24:45.724Z,99084.16
2022-09-28T20:27:12.470Z,99078.88
2022-09-28T20:29:39.211Z,99085.22
2022-09-28T20:32:05.973Z,99092.31
2022-09-28T20:34:34.054Z,99092.81
2022-09-28T20:37:01.623Z,99080.75
2022-09-28T20:39:28.859Z,99091.78
2022-09-28T20:41:56.307Z,99094.69
2022-09-28T20:44:23.305Z,99096.31
2022-09-28T20:46:51.301Z,99088.63
2022-09-28T20:49:18.278Z,99093.38
2022-09-28T20:51:45.289Z,99093.16
2022-09-28T20:54:12.087Z,99101.03
2022-09-28T20:56:40.261Z,99100.47
2022-09-28T20:59:10.531Z,99098.28
2022-09-28T21:01:39.069Z,99110.06
2022-09-28T21:04:08.130Z,99108.28
2022-09-28T21:06:37.668Z,99099.56
2022-09-28T21:09:05.642Z,99106.84
2022-09-28T21:11:35.562Z,99107.47
2022-09-28T21:14:04.696Z,99113.66
2022-09-28T21:16:32.994Z,99114.91
2022-09-28T21:18:59.947Z,99123.59
2022-09-28T21:21:27.299Z,99114.97
2022-09-28T21:23:58.078Z,99121.97
2022-09-28T21:26:29.279Z,99123.03
2022-09-28T21:29:04.447Z,99126.38
2022-09-28T21:31:48.153Z,99132.78
2022-09-28T21:34:20.401Z,99130.31
2022-09-28T21:36:51.037Z,99140.66
2022-09-28T21:39:18.406Z,99128.53
2022-09-28T21:41:45.900Z,99133.00
2022-09-28T21:44:13.060Z,99148.69
2022-09-28T21:46:39.974Z,99147.53
2022-09-28T21:49:08.229Z,99145.63
2022-09-28T21:51:35.806Z,99146.19
2022-09-28T21:54:03.225Z,99151.56
2022-09-28T21:56:40.184Z,99148.25
2022-09-28T21:59:06.957Z,99151.03
2022-09-28T22:01:33.728Z,99149.69
2022-09-28T22:04:00.847Z,99155.88
2022-09-28T22:06:30.918Z,99163.06
2022-09-28T22:08:57.761Z,99169.75
2022-09-28T22:11:26.933Z,99163.16
2022-09-28T22:13:56.143Z,99169.56
2022-09-28T22:16:25.487Z,99167.69
2022-09-28T22:18:52.861Z,99177.13
2022-09-28T22:21:24.581Z,99166.28
2022-09-28T22:23:51.534Z,99177.31
2022-09-28T22:26:23.872Z,99182.38
2022-09-28T22:28:54.550Z,99188.88
2022-09-28T22:31:24.863Z,99187.75
2022-09-28T22:33:51.691Z,99193.44
2022-09-28T22:36:19.217Z,99187.63
2022-09-28T22:38:46.940Z,99191.00
2022-09-28T22:41:19.587Z,99195.59
2022-09-28T22:43:46.948Z,99186.63
2022-09-28T22:46:19.581Z,99190.22
2022-09-28T22:48:51.252Z,99194.25
2022-09-28T22:51:18.238Z,99200.28
2022-09-28T22:53:45.130Z,99197.53
2022-09-28T22:56:17.498Z,99198.56
2022-09-28T22:58:45.332Z,99196.91
2022-09-28T23:01:14.943Z,99191.16
2022-09-28T23:03:42.616Z,99201.63
2022-09-28T23:06:10.071Z,99205.94
2022-09-28T23:08:36.892Z,99208.47
2022-09-28T23:11:03.736Z,99193.56
2022-09-28T23:13:31.153Z,99206.06
2022-09-28T23:15:59.682Z,99207.78
2022-09-28T23:18:28.629Z,99201.28
2022-09-28T23:21:06.516Z,99205.66
2022-09-28T23:23:33.575Z,99202.34
2022-09-28T23:26:00.406Z,99212.03
2022-09-28T23:31:31.737Z,99221.66
2022-09-28T23:34:00.013Z,99221.25
2022-09-28T23:36:27.173Z,99227.00
2022-09-28T23:38:54.088Z,99227.56
2022-09-28T23:41:20.928Z,99234.13
2022-09-28T23:43:47.692Z,99233.75
2022-09-28T23:46:20.309Z,99235.88
2022-09-28T23:48:47.622Z,99237.75
2022-09-28T23:51:14.314Z,99238.06
2022-09-28T23:53:41.222Z,99239.13
2022-09-28T23:56:08.017Z,99243.41
2022-09-28T23:58:34.841Z,99246.94
